createdAt,value
2018-07-12T00:07:34.800Z,3.38
2018-07-12T00:17:20.435Z,3.37
2018-07-12T00:27:18.286Z,3.37
2018-07-12T00:37:16.972Z,3.37
2018-07-12T00:47:14.094Z,3.37
2018-07-12T00:57:10.140Z,3.37
2018-07-12T01:07:04.004Z,3.37
2018-07-12T01:16:59.909Z,3.37
2018-07-12T01:26:54.392Z,3.37
2018-07-12T01:36:50.447Z,3.37
2018-07-12T01:46:46.760Z,3.37
2018-07-12T01:56:43.509Z,3.37
2018-07-12T02:06:40.051Z,3.36
2018-07-12T02:16:38.517Z,3.36
2018-07-12T02:26:34.066Z,3.36
2018-07-12T02:36:31.840Z,3.36
2018-07-12T02:46:30.969Z,3.36
2018-07-12T02:56:29.639Z,3.36
2018-07-12T03:06:27.799Z,3.36
2018-07-12T03:16:22.927Z,3.36
2018-07-12T03:26:21.584Z,3.36
2018-07-12T03:36:19.667Z,3.36
2018-07-12T03:46:17.221Z,3.36
2018-07-12T03:56:15.827Z,3.36
2018-07-12T04:06:14.161Z,3.37
2018-07-12T04:16:04.303Z,3.37
2018-07-12T04:26:02.526Z,3.37
2018-07-12T04:35:58.092Z,3.39
2018-07-12T04:45:56.876Z,3.39
2018-07-12T04:55:51.227Z,3.40
2018-07-12T05:05:45.634Z,3.41
2018-07-12T05:15:44.194Z,3.41
2018-07-12T05:25:42.865Z,3.43
2018-07-12T05:35:40.047Z,3.43
2018-07-12T05:45:37.924Z,3.42
2018-07-12T05:55:36.112Z,3.41
2018-07-12T06:05:32.652Z,3.42
2018-07-12T06:15:30.816Z,3.44
2018-07-12T06:25:29.202Z,3.44
2018-07-12T06:35:22.582Z,3.42
2018-07-12T06:45:21.933Z,3.42
2018-07-12T06:55:20.842Z,3.42
2018-07-12T07:05:16.582Z,3.42
2018-07-12T07:15:00.757Z,3.42
2018-07-12T07:24:58.863Z,3.42
2018-07-12T07:34:55.735Z,3.42
2018-07-12T07:44:53.827Z,3.42
2018-07-12T07:54:53.148Z,3.42
2018-07-12T08:04:51.241Z,3.42
2018-07-12T08:14:48.829Z,3.42
2018-07-12T08:24:44.261Z,3.42
2018-07-12T08:34:44.331Z,3.42
2018-07-12T08:44:42.515Z,3.42
2018-07-12T08:54:40.391Z,3.42
2018-07-12T09:04:35.928Z,3.41
2018-07-12T09:14:32.140Z,3.42
2018-07-12T09:24:31.879Z,3.42
2018-07-12T09:34:30.439Z,3.42
2018-07-12T09:44:28.193Z,3.42
2018-07-12T09:54:22.834Z,3.42
2018-07-12T10:04:03.909Z,3.42
2018-07-12T10:13:54.980Z,3.41
2018-07-12T10:23:45.322Z,3.41
2018-07-12T10:33:42.631Z,3.41
2018-07-12T10:43:40.689Z,3.41
2018-07-12T10:53:28.261Z,3.41
2018-07-12T11:03:27.398Z,3.41
2018-07-12T11:13:23.826Z,3.42
2018-07-12T11:23:21.166Z,3.42
2018-07-12T11:33:19.649Z,3.42
2018-07-12T11:43:15.419Z,3.42
2018-07-12T11:53:12.980Z,3.42
2018-07-12T12:03:11.625Z,3.42
2018-07-12T12:13:08.397Z,3.42
2018-07-12T12:23:08.031Z,3.42
2018-07-12T12:33:04.459Z,3.42
2018-07-12T12:42:44.858Z,3.42
2018-07-12T12:52:22.807Z,3.42
2018-07-12T13:02:16.926Z,3.41
2018-07-12T13:12:13.217Z,3.41
2018-07-12T13:22:10.784Z,3.41
2018-07-12T13:32:07.642Z,3.41
2018-07-12T13:41:47.511Z,3.41
2018-07-12T13:51:43.234Z,3.41
2018-07-12T14:01:41.079Z,3.41
2018-07-12T14:11:43.729Z,3.41
2018-07-12T14:21:22.622Z,3.41
2018-07-12T14:31:02.336Z,3.41
2018-07-12T14:40:59.446Z,3.42
2018-07-12T14:50:57.341Z,3.41
2018-07-12T15:00:40.206Z,3.41
2018-07-12T15:10:29.535Z,3.41
2018-07-12T15:20:16.167Z,3.40
2018-07-12T15:30:10.909Z,3.40
2018-07-12T15:40:10.560Z,3.40
2018-07-12T15:49:52.821Z,3.40
2018-07-12T15:59:47.130Z,3.40
2018-07-12T16:09:40.512Z,3.43
2018-07-12T16:19:36.673Z,3.44
2018-07-12T16:29:31.663Z,3.44
2018-07-12T16:39:29.644Z,3.45
2018-07-12T16:49:26.133Z,3.46
2018-07-12T16:59:20.095Z,3.45
2018-07-12T17:09:18.365Z,3.45
2018-07-12T17:19:15.275Z,3.44
2018-07-12T17:29:12.615Z,3.45
2018-07-12T17:39:10.287Z,3.44
2018-07-12T17:49:01.903Z,3.44
2018-07-12T17:58:59.150Z,3.44
2018-07-12T18:08:48.889Z,3.44
2018-07-12T18:18:33.169Z,3.44
2018-07-12T18:28:29.387Z,3.43
2018-07-12T18:38:21.450Z,3.43
2018-07-12T18:48:12.281Z,3.43
2018-07-12T18:58:08.861Z,3.42
2018-07-12T19:08:04.270Z,3.42
2018-07-12T19:17:59.545Z,3.42
2018-07-12T19:27:40.702Z,3.42
2018-07-12T19:37:31.742Z,3.42
2018-07-12T19:47:28.861Z,3.41
2018-07-12T19:57:23.765Z,3.41
2018-07-12T20:07:14.425Z,3.41
2018-07-12T20:17:06.117Z,3.41
2018-07-12T20:26:58.849Z,3.40
2018-07-12T20:36:55.786Z,3.40
2018-07-12T20:46:48.878Z,3.40
2018-07-12T20:56:45.691Z,3.40
2018-07-12T21:06:41.119Z,3.40
2018-07-12T21:16:38.123Z,3.40
2018-07-12T21:26:33.665Z,3.40
2018-07-12T21:36:22.068Z,3.40
2018-07-12T21:46:15.305Z,3.39
2018-07-12T21:56:10.271Z,3.39
2018-07-12T22:06:07.604Z,3.39
2018-07-12T22:16:02.751Z,3.39
2018-07-12T22:25:56.207Z,3.39
2018-07-12T22:35:49.183Z,3.39
2018-07-12T22:45:43.441Z,3.39
2018-07-12T22:55:36.140Z,3.39
2018-07-12T23:05:31.065Z,3.39
2018-07-12T23:15:27.313Z,3.39
2018-07-12T23:25:19.413Z,3.39
2018-07-12T23:35:14.951Z,3.39
2018-07-12T23:45:08.018Z,3.38
2018-07-12T23:55:02.892Z,3.39
